Time;durP1;ratioP1;P1;durP2;ratioP2;P2;SDS_P1;SDS_P2;PMS_P1;PMS_P2;Temp;Humidity;BMP_temperature;BMP_pressure;BME280_temperature;BME280_humidity;BME280_pressure;Samples;Min_cycle;Max_cycle;Signal;HPM_P1;HPM_P2
2021/12/23 00:00:48;;;;;;;10.00;9.02;;;15.00;37.50;;;;;;5023717;28;20192;-68
2021/12/23 00:03:17;;;;;;;10.63;9.52;;;15.00;37.60;;;;;;5038160;28;20239;-66
2021/12/23 00:05:44;;;;;;;10.52;9.52;;;14.90;37.40;;;;;;5021459;28;20297;-65
2021/12/23 00:08:11;;;;;;;10.57;9.50;;;14.90;37.70;;;;;;5038424;28;20735;-67
2021/12/23 00:10:40;;;;;;;10.85;9.85;;;14.80;37.60;;;;;;5020368;28;20309;-66
2021/12/23 00:13:07;;;;;;;10.40;9.40;;;14.80;37.60;;;;;;5020525;28;20192;-66
2021/12/23 00:15:39;;;;;;;10.73;9.65;;;14.80;37.80;;;;;;5037220;28;20231;-64
2021/12/23 00:18:18;;;;;;;10.98;9.88;;;14.70;37.80;;;;;;5039239;28;20184;-68
2021/12/23 00:23:31;;;;;;;11.30;10.18;;;14.70;37.90;;;;;;5022366;28;20307;-66
2021/12/23 00:26:01;;;;;;;10.68;9.63;;;14.70;37.90;;;;;;5038808;28;20220;-66
2021/12/23 00:28:28;;;;;;;10.80;9.70;;;14.60;37.80;;;;;;5037120;28;20204;-66
2021/12/23 00:30:55;;;;;;;10.43;9.38;;;14.60;37.90;;;;;;5036060;28;20199;-68
2021/12/23 00:33:23;;;;;;;11.57;10.38;;;14.60;38.00;;;;;;5035352;28;20259;-66
2021/12/23 00:35:54;;;;;;;10.13;9.13;;;14.60;38.10;;;;;;5019390;28;20273;-65
2021/12/23 00:38:26;;;;;;;10.27;9.27;;;14.60;38.00;;;;;;5035842;28;20200;-64
2021/12/23 00:40:54;;;;;;;10.23;9.23;;;14.50;37.90;;;;;;5019136;28;20199;-66
2021/12/23 00:43:21;;;;;;;10.82;9.82;;;14.50;38.00;;;;;;5019425;28;20223;-67
2021/12/23 00:45:48;;;;;;;9.85;8.95;;;14.50;38.00;;;;;;5018565;28;20219;-68
2021/12/23 00:48:15;;;;;;;9.23;8.32;;;14.50;37.80;;;;;;5018841;28;20203;-66
2021/12/23 00:50:42;;;;;;;10.95;9.90;;;14.50;38.00;;;;;;5035013;28;20294;-65
2021/12/23 00:53:16;;;;;;;10.27;9.27;;;14.40;37.90;;;;;;5018104;28;20575;-66
2021/12/23 00:55:44;;;;;;;10.57;9.45;;;14.40;37.90;;;;;;5034503;28;20468;-65
2021/12/23 00:58:11;;;;;;;9.40;8.50;;;14.40;37.80;;;;;;5034445;28;20767;-65
2021/12/23 01:00:39;;;;;;;9.65;8.73;;;14.40;38.50;;;;;;5017913;28;20196;-67
2021/12/23 01:03:06;;;;;;;10.55;9.55;;;14.40;38.00;;;;;;5034104;28;20298;-65
2021/12/23 01:05:34;;;;;;;10.18;9.27;;;14.40;37.90;;;;;;5034571;28;20306;-66
2021/12/23 01:08:01;;;;;;;10.25;9.25;;;14.40;37.90;;;;;;5017882;28;20238;-68
2021/12/23 01:10:29;;;;;;;10.40;9.48;;;14.40;37.90;;;;;;5034663;28;20269;-66
2021/12/23 01:12:59;;;;;;;10.15;9.18;;;14.30;37.90;;;;;;5035712;28;20220;-66
2021/12/23 01:18:13;;;;;;;10.13;9.20;;;14.30;38.00;;;;;;5035640;28;20197;-67
2021/12/23 01:20:50;;;;;;;10.23;9.32;;;14.30;38.00;;;;;;5035673;28;20216;-65
2021/12/23 01:23:19;;;;;;;9.63;8.70;;;14.30;38.00;;;;;;5034748;28;20235;-66
2021/12/23 01:25:48;;;;;;;11.00;9.90;;;14.20;38.00;;;;;;5017301;28;20319;-68
2021/12/23 01:28:15;;;;;;;11.57;10.38;;;14.20;37.90;;;;;;5034049;28;20202;-67
2021/12/23 01:30:42;;;;;;;10.77;9.70;;;14.20;38.10;;;;;;5017596;28;20294;-67
2021/12/23 01:33:10;;;;;;;10.80;9.80;;;14.20;38.10;;;;;;5034095;28;20203;-66
2021/12/23 01:35:37;;;;;;;11.05;9.95;;;14.20;38.10;;;;;;5033740;28;20221;-67
2021/12/23 01:38:04;;;;;;;11.75;10.65;;;14.20;38.10;;;;;;5034177;28;20351;-66
2021/12/23 01:40:31;;;;;;;10.55;9.55;;;14.20;38.10;;;;;;5017286;28;20212;-65
2021/12/23 01:43:00;;;;;;;10.68;9.68;;;14.10;38.10;;;;;;5017234;28;20274;-68
2021/12/23 01:45:29;;;;;;;11.38;10.25;;;14.10;38.10;;;;;;5033861;28;20262;-68
2021/12/23 01:47:56;;;;;;;11.00;9.90;;;14.10;38.20;;;;;;5034064;28;20261;-66
2021/12/23 01:50:26;;;;;;;11.65;10.45;;;14.10;38.20;;;;;;5035751;28;20185;-66
2021/12/23 01:52:54;;;;;;;10.50;9.50;;;14.10;38.30;;;;;;5035883;28;20177;-66
2021/12/23 01:55:21;;;;;;;11.13;10.05;;;14.10;38.30;;;;;;5035292;28;20194;-67
2021/12/23 01:57:49;;;;;;;10.55;9.50;;;14.10;38.30;;;;;;5017896;28;20203;-68
2021/12/23 02:00:19;;;;;;;10.60;9.60;;;14.00;38.30;;;;;;5018005;28;20203;-65
2021/12/23 02:02:46;;;;;;;10.65;9.75;;;14.00;38.30;;;;;;5033504;28;20219;-66
2021/12/23 02:05:13;;;;;;;11.02;9.93;;;14.00;38.40;;;;;;5033424;28;20204;-68
2021/12/23 02:07:40;;;;;;;11.63;10.43;;;14.00;38.20;;;;;;5035684;28;20201;-68
2021/12/23 02:10:08;;;;;;;11.10;10.00;;;14.00;38.30;;;;;;5017021;28;20196;-67
2021/12/23 02:12:35;;;;;;;10.85;9.75;;;14.00;38.40;;;;;;5016894;28;20664;-65
2021/12/23 02:15:02;;;;;;;10.57;9.48;;;13.90;38.30;;;;;;5015829;28;20200;-67
2021/12/23 02:17:31;;;;;;;10.25;9.27;;;13.90;38.20;;;;;;5017016;28;20286;-68
2021/12/23 02:19:59;;;;;;;11.40;10.30;;;13.90;38.40;;;;;;5034047;28;20196;-66
2021/12/23 02:22:26;;;;;;;10.52;9.52;;;13.90;38.30;;;;;;5016362;28;20643;-66
2021/12/23 02:24:53;;;;;;;11.10;10.05;;;13.90;38.30;;;;;;5032763;28;20199;-65
2021/12/23 02:27:20;;;;;;;10.45;9.45;;;13.90;38.30;;;;;;5016326;28;20220;-68
2021/12/23 02:29:47;;;;;;;10.73;9.63;;;13.90;38.30;;;;;;5016315;28;20196;-66
2021/12/23 02:32:14;;;;;;;11.40;10.30;;;13.90;39.10;;;;;;5032765;28;20300;-68
2021/12/23 02:34:41;;;;;;;10.43;9.38;;;13.90;38.40;;;;;;5019241;28;20198;-68
2021/12/23 02:37:10;;;;;;;9.50;8.60;;;13.90;38.40;;;;;;5020611;28;20317;-69
2021/12/23 02:39:37;;;;;;;10.90;9.90;;;13.90;38.40;;;;;;5023302;28;20255;-67
2021/12/23 02:42:05;;;;;;;10.95;9.85;;;13.90;38.30;;;;;;5034816;28;20247;-67
2021/12/23 02:44:32;;;;;;;10.02;9.02;;;13.80;38.20;;;;;;5032728;28;20230;-67
2021/12/23 02:46:59;;;;;;;11.32;10.25;;;13.80;38.30;;;;;;5032616;28;20224;-66
2021/12/23 02:49:26;;;;;;;10.50;9.50;;;13.80;38.30;;;;;;5032652;28;20310;-65
2021/12/23 02:51:54;;;;;;;10.70;9.60;;;13.80;38.30;;;;;;5033272;28;20620;-67
2021/12/23 02:54:22;;;;;;;10.75;9.65;;;13.80;38.30;;;;;;5032088;28;20300;-66
2021/12/23 02:56:49;;;;;;;10.68;9.57;;;13.80;38.40;;;;;;5032129;28;20219;-65
2021/12/23 02:59:16;;;;;;;11.88;10.77;;;13.80;38.30;;;;;;5033166;28;20210;-66
2021/12/23 03:01:43;;;;;;;11.48;10.27;;;13.80;38.30;;;;;;5032895;28;20194;-68
2021/12/23 03:04:11;;;;;;;10.85;9.75;;;13.80;38.10;;;;;;5031583;28;20695;-67
2021/12/23 03:06:38;;;;;;;10.35;9.43;;;13.80;38.30;;;;;;5031336;28;20274;-64
2021/12/23 03:09:05;;;;;;;10.73;9.73;;;13.80;38.40;;;;;;5031706;28;20290;-67
2021/12/23 03:11:34;;;;;;;11.00;9.90;;;13.70;38.30;;;;;;5015230;28;20299;-66
2021/12/23 03:14:01;;;;;;;10.80;9.77;;;13.70;38.50;;;;;;5032178;28;20198;-66
2021/12/23 03:16:30;;;;;;;10.77;9.73;;;13.70;38.40;;;;;;5032544;28;20222;-65
2021/12/23 03:18:57;;;;;;;10.85;9.80;;;13.60;38.30;;;;;;5032267;28;20199;-66
2021/12/23 03:21:24;;;;;;;10.45;9.45;;;13.70;38.50;;;;;;5015072;28;20675;-68
2021/12/23 03:23:51;;;;;;;11.18;10.07;;;13.70;38.50;;;;;;5031535;28;20631;-65
2021/12/23 03:26:18;;;;;;;10.82;9.73;;;13.70;38.30;;;;;;5017850;28;20219;-68
2021/12/23 03:28:47;;;;;;;10.77;9.77;;;13.70;38.40;;;;;;5019212;28;20203;-66
2021/12/23 03:31:14;;;;;;;11.65;10.55;;;13.70;38.50;;;;;;5035350;28;20196;-66
2021/12/23 03:33:41;;;;;;;11.40;10.02;;;13.70;38.50;;;;;;5036647;28;20247;-66
2021/12/23 03:36:08;;;;;;;11.25;10.15;;;13.60;38.40;;;;;;5019236;28;20589;-64
2021/12/23 03:38:35;;;;;;;10.27;9.02;;;13.70;38.10;;;;;;5018815;28;20279;-67
2021/12/23 03:41:02;;;;;;;10.90;9.80;;;13.70;38.40;;;;;;5035465;28;20290;-66
2021/12/23 03:43:29;;;;;;;10.48;9.48;;;13.60;38.30;;;;;;5036538;28;20216;-67
2021/12/23 03:45:58;;;;;;;10.82;9.73;;;13.60;38.50;;;;;;5035132;28;20318;-68
2021/12/23 03:48:25;;;;;;;11.25;10.15;;;13.60;38.30;;;;;;5018713;28;20203;-66
2021/12/23 03:50:52;;;;;;;10.43;9.43;;;13.60;38.20;;;;;;5035081;28;20214;-66
2021/12/23 03:53:19;;;;;;;10.80;9.80;;;13.70;38.20;;;;;;5036184;28;20720;-66
2021/12/23 03:55:46;;;;;;;10.98;9.88;;;13.70;38.80;;;;;;5035105;28;20713;-68
2021/12/23 03:58:13;;;;;;;10.93;9.93;;;13.70;38.20;;;;;;5035179;28;20564;-64
2021/12/23 04:00:40;;;;;;;11.43;10.35;;;13.70;37.70;;;;;;5036265;28;20211;-66
2021/12/23 04:03:09;;;;;;;11.48;10.43;;;13.70;38.10;;;;;;5018476;28;20691;-68
2021/12/23 04:05:36;;;;;;;11.25;10.15;;;13.70;38.10;;;;;;5018315;28;20255;-66
2021/12/23 04:08:04;;;;;;;11.20;10.10;;;13.70;37.90;;;;;;5036062;28;20195;-66
2021/12/23 04:10:31;;;;;;;10.80;9.68;;;13.70;38.00;;;;;;5018623;28;20200;-68
2021/12/23 04:12:58;;;;;;;11.73;10.60;;;13.70;38.10;;;;;;5036082;28;20191;-66
2021/12/23 04:15:25;;;;;;;11.18;10.07;;;13.70;38.10;;;;;;5018011;28;20214;-66
2021/12/23 04:17:52;;;;;;;12.88;11.57;;;13.70;38.20;;;;;;5018233;28;20200;-65
2021/12/23 04:20:23;;;;;;;12.45;11.25;;;13.70;38.20;;;;;;5018271;28;20203;-68
2021/12/23 04:22:51;;;;;;;11.80;10.60;;;13.70;38.20;;;;;;5034428;28;20624;-67
2021/12/23 04:25:19;;;;;;;12.88;11.40;;;13.70;38.30;;;;;;5017989;28;20196;-66
2021/12/23 04:27:47;;;;;;;9.93;9.02;;;13.70;38.20;;;;;;5034647;28;20204;-68
2021/12/23 04:30:14;;;;;;;11.55;10.35;;;13.70;38.10;;;;;;5018211;28;20202;-64
2021/12/23 04:32:41;;;;;;;12.52;11.23;;;13.80;38.10;;;;;;5034354;28;20195;-68
2021/12/23 04:35:09;;;;;;;10.75;9.75;;;13.80;38.00;;;;;;5018096;28;20581;-68
2021/12/23 04:37:37;;;;;;;10.77;9.77;;;13.90;38.10;;;;;;5033475;28;20209;-68
2021/12/23 04:40:06;;;;;;;10.30;9.40;;;13.90;38.10;;;;;;5034549;28;20192;-66
2021/12/23 04:42:33;;;;;;;10.23;9.27;;;13.90;37.90;;;;;;5035570;28;20192;-66
2021/12/23 04:45:00;;;;;;;10.32;9.32;;;13.90;38.10;;;;;;5035548;28;20248;-68
2021/12/23 04:47:27;;;;;;;9.70;8.75;;;13.90;38.10;;;;;;5034118;28;20216;-65
2021/12/23 04:49:54;;;;;;;9.90;8.90;;;13.90;37.90;;;;;;5033937;28;20200;-67
2021/12/23 04:52:21;;;;;;;10.70;9.68;;;14.00;37.90;;;;;;5035262;28;20195;-67
2021/12/23 04:54:50;;;;;;;10.93;9.93;;;14.00;37.80;;;;;;5034204;28;20268;-66
2021/12/23 04:57:17;;;;;;;10.43;9.43;;;14.00;37.70;;;;;;5034201;28;20223;-68
2021/12/23 04:59:44;;;;;;;10.30;9.20;;;14.00;37.60;;;;;;5034060;28;20196;-66
2021/12/23 05:02:11;;;;;;;10.10;9.13;;;14.10;37.90;;;;;;5033934;28;20192;-67
2021/12/23 05:04:38;;;;;;;10.38;9.35;;;14.10;37.80;;;;;;5034010;28;20227;-65
2021/12/23 05:07:05;;;;;;;10.13;9.00;;;14.10;37.70;;;;;;5033685;28;20236;-65
2021/12/23 05:09:32;;;;;;;10.50;9.43;;;14.10;37.70;;;;;;5017004;28;20206;-69
2021/12/23 05:12:00;;;;;;;9.70;8.80;;;14.20;37.60;;;;;;5017136;28;20196;-68
2021/12/23 05:14:28;;;;;;;9.60;8.60;;;14.20;37.50;;;;;;5033641;28;20210;-67
2021/12/23 05:16:55;;;;;;;10.65;9.55;;;14.20;37.50;;;;;;5034994;28;20257;-66
2021/12/23 05:19:22;;;;;;;10.48;9.40;;;14.20;37.40;;;;;;5017610;28;20206;-66
2021/12/23 05:21:49;;;;;;;9.80;8.85;;;14.30;37.30;;;;;;5033637;28;20200;-67
2021/12/23 05:24:16;;;;;;;9.60;8.70;;;14.40;37.20;;;;;;5034012;28;20216;-66
2021/12/23 05:26:43;;;;;;;10.48;9.48;;;14.40;37.20;;;;;;5017024;28;20638;-66
2021/12/23 05:29:14;;;;;;;10.60;9.60;;;14.40;36.80;;;;;;5033447;28;20278;-66
2021/12/23 05:31:41;;;;;;;9.95;8.95;;;14.40;37.10;;;;;;5017735;28;20732;-67
2021/12/23 05:34:08;;;;;;;10.07;9.13;;;14.50;36.80;;;;;;5017234;28;20214;-66
2021/12/23 05:36:35;;;;;;;10.65;9.65;;;14.50;36.90;;;;;;5034159;28;20216;-66
2021/12/23 05:39:02;;;;;;;10.43;9.35;;;14.50;36.90;;;;;;5034751;28;20196;-66
2021/12/23 05:41:29;;;;;;;10.15;9.20;;;14.60;37.00;;;;;;5017007;28;20196;-66
2021/12/23 05:43:57;;;;;;;9.80;8.75;;;14.50;36.90;;;;;;5034866;28;20646;-65
2021/12/23 05:46:25;;;;;;;10.15;9.05;;;14.60;37.00;;;;;;5016933;28;20219;-66
2021/12/23 05:48:52;;;;;;;9.23;8.32;;;14.60;37.20;;;;;;5032307;28;20199;-67
2021/12/23 05:51:19;;;;;;;9.63;8.73;;;14.60;37.00;;;;;;5016764;28;20207;-67
2021/12/23 05:53:46;;;;;;;9.05;8.25;;;14.60;37.00;;;;;;5033476;28;20241;-68
2021/12/23 05:56:13;;;;;;;9.65;8.75;;;14.60;37.60;;;;;;5017058;28;20262;-68
2021/12/23 05:58:40;;;;;;;9.90;8.93;;;14.60;37.00;;;;;;5016505;28;20227;-66
2021/12/23 06:01:07;;;;;;;9.65;8.75;;;14.60;37.00;;;;;;5016532;28;20210;-64
2021/12/23 06:03:36;;;;;;;9.65;8.73;;;14.60;37.00;;;;;;5033204;28;20299;-66
2021/12/23 06:06:03;;;;;;;10.25;9.35;;;14.60;36.90;;;;;;5016361;28;20219;-66
2021/12/23 06:08:30;;;;;;;10.20;9.20;;;14.70;37.00;;;;;;5032990;28;20200;-66
2021/12/23 06:10:57;;;;;;;11.27;10.18;;;14.70;36.40;;;;;;5033289;28;20294;-67
2021/12/23 06:13:24;;;;;;;11.18;10.05;;;14.70;36.20;;;;;;5017224;28;20200;-68
2021/12/23 06:15:51;;;;;;;10.77;9.75;;;14.70;36.10;;;;;;5016663;28;20278;-66
2021/12/23 06:18:18;;;;;;;10.52;9.57;;;14.80;36.30;;;;;;5016212;28;20286;-66
2021/12/23 06:20:47;;;;;;;11.38;10.27;;;14.80;36.40;;;;;;5032940;28;20207;-66
2021/12/23 06:23:14;;;;;;;10.68;9.60;;;14.90;36.60;;;;;;5034043;28;20665;-66
2021/12/23 06:25:41;;;;;;;10.15;9.15;;;14.90;37.20;;;;;;5032891;28;20219;-65
2021/12/23 06:28:07;;;;;;;10.65;9.65;;;14.90;36.60;;;;;;5032679;28;20200;-67
2021/12/23 06:30:34;;;;;;;10.25;9.25;;;15.00;36.60;;;;;;5032825;28;20207;-66
2021/12/23 06:33:01;;;;;;;10.48;9.45;;;15.00;36.90;;;;;;5033570;28;20191;-64
2021/12/23 06:35:30;;;;;;;11.63;10.52;;;15.00;37.00;;;;;;5033535;28;20656;-66
2021/12/23 06:37:58;;;;;;;9.55;8.65;;;15.10;36.20;;;;;;5015853;28;20223;-67
2021/12/23 06:40:26;;;;;;;10.13;9.13;;;15.10;36.50;;;;;;5015594;28;20196;-66
2021/12/23 06:42:52;;;;;;;9.75;8.85;;;15.10;36.40;;;;;;5015683;28;20285;-64
2021/12/23 06:45:20;;;;;;;9.93;9.02;;;15.10;36.50;;;;;;5033171;28;20204;-67
2021/12/23 06:47:47;;;;;;;10.00;9.07;;;15.10;37.20;;;;;;5033571;28;20448;-68
2021/12/23 06:50:16;;;;;;;9.48;8.57;;;15.10;36.50;;;;;;5032102;28;20287;-66
2021/12/23 06:52:43;;;;;;;9.93;8.93;;;15.10;36.80;;;;;;5015542;28;20200;-65
2021/12/23 06:55:12;;;;;;;9.20;8.30;;;15.10;36.70;;;;;;5032053;28;20556;-67
2021/12/23 06:57:39;;;;;;;9.73;8.82;;;15.10;36.80;;;;;;5015437;28;20204;-66
2021/12/23 07:00:07;;;;;;;10.48;9.48;;;15.10;36.90;;;;;;5015174;28;20682;-68
2021/12/23 07:02:38;;;;;;;8.93;8.13;;;15.00;36.90;;;;;;5032024;28;20202;-65
2021/12/23 07:05:06;;;;;;;9.80;8.80;;;15.00;37.00;;;;;;5032070;28;20315;-64
2021/12/23 07:07:40;;;;;;;9.20;8.30;;;15.00;37.00;;;;;;5031592;28;20315;-66
2021/12/23 07:10:08;;;;;;;9.65;8.63;;;14.90;36.80;;;;;;5031860;28;20683;-66
2021/12/23 07:12:36;;;;;;;9.63;8.68;;;15.00;36.90;;;;;;5031578;28;20215;-66
2021/12/23 07:15:04;;;;;;;9.65;8.75;;;14.90;36.90;;;;;;5032714;28;20234;-68
2021/12/23 07:17:31;;;;;;;9.90;8.90;;;14.90;36.90;;;;;;5031549;28;20219;-68
2021/12/23 07:19:58;;;;;;;9.45;8.57;;;14.90;37.00;;;;;;5015025;28;20208;-67
2021/12/23 07:22:25;;;;;;;9.98;8.98;;;15.00;37.10;;;;;;5031392;28;20214;-67
2021/12/23 07:24:52;;;;;;;10.95;9.85;;;15.00;36.50;;;;;;5034742;28;20291;-68
2021/12/23 07:27:19;;;;;;;10.18;9.20;;;15.00;36.40;;;;;;5031379;28;20703;-65
2021/12/23 07:29:49;;;;;;;11.18;10.07;;;15.00;36.50;;;;;;5031121;28;20200;-65
2021/12/23 07:32:15;;;;;;;11.02;9.90;;;15.10;36.30;;;;;;5031319;28;20660;-65
2021/12/23 07:34:43;;;;;;;11.57;10.38;;;15.10;35.90;;;;;;5032567;28;20310;-66
2021/12/23 07:37:10;;;;;;;10.90;9.80;;;15.20;35.70;;;;;;5032161;28;20266;-68
2021/12/23 07:39:38;;;;;;;11.60;10.40;;;15.20;36.00;;;;;;5032484;28;20660;-67
2021/12/23 07:42:06;;;;;;;11.05;10.05;;;15.20;35.60;;;;;;5032359;28;20197;-68
2021/12/23 07:44:33;;;;;;;9.90;8.90;;;15.30;35.70;;;;;;5031170;28;20330;-68
2021/12/23 07:47:02;;;;;;;11.10;9.93;;;15.20;35.90;;;;;;5014664;28;20238;-64
2021/12/23 07:49:29;;;;;;;10.05;9.05;;;15.20;35.70;;;;;;5014625;28;20210;-66
2021/12/23 07:51:56;;;;;;;9.68;8.75;;;15.20;35.70;;;;;;5014843;28;20200;-67
2021/12/23 07:54:23;;;;;;;11.10;10.00;;;15.30;35.90;;;;;;5014761;28;20191;-68
2021/12/23 07:56:50;;;;;;;10.48;9.48;;;15.30;35.40;;;;;;5014712;28;20208;-68
2021/12/23 07:59:17;;;;;;;11.38;10.13;;;15.30;35.50;;;;;;5014744;28;20196;-66
2021/12/23 08:01:44;;;;;;;11.00;9.93;;;15.30;35.50;;;;;;5030964;28;20629;-68
2021/12/23 08:04:14;;;;;;;12.10;10.90;;;15.40;35.50;;;;;;5014630;28;20266;-66
2021/12/23 08:06:42;;;;;;;10.35;9.35;;;15.40;35.30;;;;;;5014573;28;20239;-66
2021/12/23 08:09:09;;;;;;;11.35;10.25;;;15.40;35.40;;;;;;5031064;28;20203;-66
2021/12/23 08:11:36;;;;;;;11.98;10.77;;;15.50;35.30;;;;;;5031139;28;20716;-67
2021/12/23 08:14:04;;;;;;;12.30;11.05;;;15.40;35.00;;;;;;5036151;28;20196;-67
2021/12/23 08:16:31;;;;;;;10.85;9.75;;;15.50;34.90;;;;;;5018237;28;20227;-64
2021/12/23 08:18:58;;;;;;;10.77;9.68;;;15.50;35.20;;;;;;5018283;28;20192;-67
2021/12/23 08:21:28;;;;;;;11.32;10.23;;;15.50;35.00;;;;;;5034949;28;20525;-68
2021/12/23 08:23:56;;;;;;;10.50;9.50;;;15.50;35.20;;;;;;5018750;28;20254;-66
2021/12/23 08:26:27;;;;;;;11.52;10.32;;;15.60;35.10;;;;;;5019023;28;20214;-65
2021/12/23 08:28:55;;;;;;;10.48;9.48;;;15.60;34.80;;;;;;5036698;28;20192;-66
2021/12/23 08:31:22;;;;;;;10.85;9.75;;;15.60;34.90;;;;;;5036204;28;20615;-67
2021/12/23 08:33:49;;;;;;;10.68;9.57;;;15.60;35.00;;;;;;5034710;28;20648;-67
2021/12/23 08:36:16;;;;;;;11.13;10.02;;;15.60;35.50;;;;;;5034792;28;20302;-65
2021/12/23 08:38:44;;;;;;;11.45;10.25;;;15.70;34.80;;;;;;5017985;28;20210;-64
2021/12/23 08:41:11;;;;;;;13.43;11.60;;;15.60;34.70;;;;;;5018306;28;20196;-66
2021/12/23 08:43:38;;;;;;;11.82;10.63;;;15.70;34.40;;;;;;5018019;28;20196;-67
2021/12/23 08:46:05;;;;;;;11.95;10.75;;;15.70;34.50;;;;;;5018096;28;20228;-64
2021/12/23 08:48:32;;;;;;;11.30;10.15;;;15.70;34.30;;;;;;5017716;28;20196;-67
2021/12/23 08:50:59;;;;;;;11.10;10.00;;;15.70;34.50;;;;;;5017996;28;20196;-68
2021/12/23 08:53:26;;;;;;;11.63;10.50;;;15.70;34.90;;;;;;5017574;28;20200;-64
2021/12/23 08:55:54;;;;;;;11.38;10.27;;;15.80;34.50;;;;;;5017512;28;20692;-65
2021/12/23 08:58:21;;;;;;;10.82;9.80;;;15.80;34.20;;;;;;5035167;28;20545;-65
2021/12/23 09:00:48;;;;;;;10.95;9.85;;;15.80;34.50;;;;;;5035112;28;20651;-67
2021/12/23 09:03:16;;;;;;;10.68;9.60;;;15.80;34.60;;;;;;5033759;28;20207;-66
2021/12/23 09:05:43;;;;;;;11.68;10.38;;;15.90;34.70;;;;;;5035012;28;20246;-66
2021/12/23 09:08:10;;;;;;;10.95;9.93;;;15.90;34.30;;;;;;5017397;28;20211;-68
2021/12/23 09:10:37;;;;;;;11.15;10.02;;;15.90;34.50;;;;;;5033816;28;20612;-65
2021/12/23 09:13:06;;;;;;;11.18;10.05;;;15.90;34.50;;;;;;5017240;28;20202;-64
2021/12/23 09:15:32;;;;;;;10.90;9.80;;;16.00;34.50;;;;;;5033830;28;20228;-64
2021/12/23 09:18:00;;;;;;;12.15;10.90;;;16.00;34.20;;;;;;5033848;28;20200;-68
2021/12/23 09:20:27;;;;;;;11.25;10.15;;;16.00;34.20;;;;;;5017294;28;20196;-66
2021/12/23 09:22:54;;;;;;;11.95;10.57;;;16.00;34.70;;;;;;5017066;28;20196;-65
2021/12/23 09:25:25;;;;;;;12.32;11.02;;;16.00;34.00;;;;;;5034714;28;20295;-67
2021/12/23 09:28:03;;;;;;;11.65;10.45;;;16.00;33.90;;;;;;5017256;28;20196;-67
2021/12/23 09:33:16;;;;;;;10.20;9.20;;;16.00;34.10;;;;;;5034870;28;20188;-66
2021/12/23 09:35:43;;;;;;;11.30;10.10;;;16.00;34.30;;;;;;5017006;28;20213;-66
2021/12/23 09:38:10;;;;;;;12.45;10.68;;;16.00;34.10;;;;;;5016924;28;20204;-64
2021/12/23 09:40:38;;;;;;;11.27;10.07;;;16.00;34.30;;;;;;5034307;28;20279;-67
2021/12/23 09:43:06;;;;;;;10.63;9.63;;;16.00;34.30;;;;;;5034416;28;20271;-66
2021/12/23 09:45:34;;;;;;;10.88;9.77;;;16.00;35.00;;;;;;5032973;28;20232;-66
2021/12/23 09:48:02;;;;;;;11.15;10.15;;;16.00;34.30;;;;;;5017209;28;20192;-65
2021/12/23 09:50:31;;;;;;;11.35;10.25;;;16.00;34.40;;;;;;5016665;28;20206;-65
2021/12/23 09:52:58;;;;;;;10.77;9.77;;;16.00;34.30;;;;;;5017053;28;20192;-67
2021/12/23 09:55:26;;;;;;;13.13;11.30;;;16.00;34.20;;;;;;5016977;28;20196;-67
2021/12/23 09:57:54;;;;;;;11.23;10.13;;;16.00;34.80;;;;;;5017047;28;20570;-66
2021/12/23 10:00:23;;;;;;;12.30;11.10;;;16.00;34.10;;;;;;5016959;28;20559;-66
2021/12/23 10:02:51;;;;;;;11.73;10.55;;;16.10;34.10;;;;;;5017029;28;20639;-68
2021/12/23 10:05:19;;;;;;;14.75;11.68;;;16.00;33.70;;;;;;5034688;28;20699;-66
2021/12/23 10:07:48;;;;;;;10.98;9.88;;;16.00;33.60;;;;;;5017085;28;20246;-66
2021/12/23 10:10:19;;;;;;;11.25;10.15;;;16.00;33.90;;;;;;5016896;28;20620;-66
2021/12/23 10:27:07;;;;;;;10.27;9.27;;;16.20;34.10;;;;;;5016119;28;20232;-68
2021/12/23 10:32:38;;;;;;;10.15;9.15;;;16.30;34.00;;;;;;5016771;28;20659;-64
2021/12/23 10:38:02;;;;;;;9.73;8.75;;;16.30;33.90;;;;;;5016216;28;20735;-66
2021/12/23 10:40:29;;;;;;;10.13;9.07;;;16.30;34.10;;;;;;5033875;28;20636;-69
2021/12/23 10:42:56;;;;;;;11.10;10.00;;;16.30;33.90;;;;;;5032992;28;20286;-68
2021/12/23 10:45:24;;;;;;;11.05;9.95;;;16.30;34.00;;;;;;5015777;28;20294;-66
2021/12/23 10:47:56;;;;;;;11.27;10.15;;;16.40;34.30;;;;;;5016092;28;20293;-65
2021/12/23 10:50:31;;;;;;;11.07;9.98;;;16.30;33.70;;;;;;5016459;28;20207;-65
2021/12/23 10:53:02;;;;;;;10.95;9.95;;;16.30;34.00;;;;;;5032469;28;20191;-67
2021/12/23 10:58:22;;;;;;;11.30;10.18;;;16.40;33.90;;;;;;4997923;28;20207;-68
2021/12/23 11:00:50;;;;;;;11.07;10.00;;;16.40;33.80;;;;;;5033752;28;20192;-65
2021/12/23 11:03:21;;;;;;;10.93;9.85;;;16.40;33.80;;;;;;5015742;28;20200;-68
2021/12/23 11:06:00;;;;;;;10.88;9.43;;;16.40;34.20;;;;;;5033585;28;20274;-66
2021/12/23 11:08:35;;;;;;;11.30;10.20;;;16.50;34.80;;;;;;5016194;28;20269;-68
2021/12/23 11:28:40;;;;;;;11.32;10.18;;;16.60;34.00;;;;;;5033384;28;20179;-66
2021/12/23 11:37:06;;;;;;;10.52;9.52;;;16.60;34.50;;;;;;5014195;28;20222;-66
2021/12/23 11:39:47;;;;;;;11.10;9.85;;;16.60;34.50;;;;;;5032827;28;20176;-68
2021/12/23 11:42:22;;;;;;;11.77;9.98;;;16.60;34.20;;;;;;5033135;28;20188;-67
2021/12/23 11:44:50;;;;;;;11.10;9.95;;;16.60;34.30;;;;;;5031265;28;20195;-66
2021/12/23 11:47:17;;;;;;;11.88;10.75;;;16.70;34.10;;;;;;5032505;28;20215;-68
2021/12/23 11:49:46;;;;;;;11.25;10.13;;;16.60;34.10;;;;;;5018987;28;20650;-67
2021/12/23 11:52:14;;;;;;;13.07;11.75;;;16.70;34.30;;;;;;5035489;28;20196;-66
2021/12/23 11:54:44;;;;;;;10.70;9.40;;;16.60;34.00;;;;;;5036629;28;20202;-66
2021/12/23 11:57:14;;;;;;;11.55;10.45;;;16.70;34.50;;;;;;5018745;28;20216;-65
2021/12/23 11:59:43;;;;;;;11.35;10.15;;;16.70;34.10;;;;;;5018674;28;20283;-64
2021/12/23 12:02:15;;;;;;;10.40;9.45;;;16.70;34.10;;;;;;5036531;28;20188;-65
2021/12/23 12:04:43;;;;;;;10.43;9.43;;;16.70;34.20;;;;;;5036721;28;20283;-64
2021/12/23 12:07:14;;;;;;;10.10;9.10;;;16.80;34.40;;;;;;5035065;28;20220;-69
2021/12/23 12:09:56;;;;;;;11.75;10.55;;;16.80;34.10;;;;;;5035130;28;20588;-64
2021/12/23 12:12:23;;;;;;;10.90;9.70;;;16.80;34.10;;;;;;5034987;28;20192;-68
2021/12/23 12:14:51;;;;;;;12.07;10.88;;;16.90;34.20;;;;;;5034875;28;20196;-67
2021/12/23 12:17:38;;;;;;;11.07;9.98;;;16.90;34.20;;;;;;5018280;28;20220;-66
2021/12/23 12:20:22;;;;;;;11.98;10.77;;;16.90;34.30;;;;;;5018281;28;20319;-67
2021/12/23 12:23:03;;;;;;;11.95;10.75;;;16.90;34.20;;;;;;5018309;28;20204;-65
2021/12/23 12:25:56;;;;;;;11.27;10.10;;;16.90;34.20;;;;;;5034344;28;20246;-67
2021/12/23 12:28:34;;;;;;;12.68;11.32;;;16.90;34.20;;;;;;5018174;28;20652;-68
2021/12/23 12:31:02;;;;;;;12.18;10.98;;;17.00;33.90;;;;;;5017900;28;20656;-65
2021/12/23 12:34:05;;;;;;;13.63;11.85;;;17.00;33.90;;;;;;5035830;28;20192;-64
2021/12/23 12:36:39;;;;;;;11.13;9.38;;;17.00;34.00;;;;;;5017816;28;20314;-67
2021/12/23 12:39:25;;;;;;;12.35;11.15;;;17.00;34.00;;;;;;5018356;28;20192;-66
2021/12/23 12:42:01;;;;;;;11.75;10.60;;;17.00;33.80;;;;;;5017934;28;20265;-66
2021/12/23 12:44:40;;;;;;;11.88;10.32;;;17.00;34.00;;;;;;5017729;28;20196;-66
2021/12/23 12:47:12;;;;;;;10.40;9.40;;;17.00;33.90;;;;;;5017811;28;20596;-68
2021/12/23 12:49:41;;;;;;;10.23;9.23;;;17.00;34.00;;;;;;5017968;28;20204;-66
2021/12/23 12:52:31;;;;;;;11.13;10.00;;;17.00;34.30;;;;;;5034026;28;20192;-68
2021/12/23 12:55:00;;;;;;;10.50;9.40;;;17.00;34.30;;;;;;5017474;28;20679;-67
2021/12/23 12:57:34;;;;;;;11.73;10.52;;;17.00;34.30;;;;;;5035096;28;20204;-67
2021/12/23 13:00:21;;;;;;;12.38;11.10;;;17.00;34.10;;;;;;5017529;28;20224;-68
2021/12/23 13:02:49;;;;;;;10.73;9.52;;;17.00;34.90;;;;;;5035075;28;20208;-68
2021/12/23 13:05:16;;;;;;;10.73;9.63;;;17.00;34.30;;;;;;5034058;28;20295;-66
2021/12/23 13:08:19;;;;;;;11.57;10.45;;;17.00;34.30;;;;;;5035219;28;20180;-66
2021/12/23 13:10:59;;;;;;;10.40;9.40;;;17.00;34.30;;;;;;5034126;28;20196;-65
2021/12/23 13:14:12;;;;;;;10.45;9.40;;;17.00;34.50;;;;;;5034888;28;20227;-64
2021/12/23 13:17:09;;;;;;;10.90;9.82;;;17.00;34.80;;;;;;5017513;28;20314;-66
2021/12/23 13:19:36;;;;;;;11.15;9.95;;;17.00;34.70;;;;;;5033895;28;20287;-68
2021/12/23 13:22:05;;;;;;;10.95;9.88;;;17.00;34.70;;;;;;5033804;28;20202;-68
2021/12/23 13:24:33;;;;;;;11.50;10.38;;;17.00;34.80;;;;;;5035211;28;20192;-66
2021/12/23 13:27:01;;;;;;;11.10;10.00;;;17.10;34.60;;;;;;5017385;28;20224;-66
2021/12/23 13:29:32;;;;;;;11.05;9.95;;;17.10;34.80;;;;;;5035059;28;20192;-66
2021/12/23 13:32:00;;;;;;;11.15;10.10;;;17.10;35.40;;;;;;5017203;28;20196;-65
2021/12/23 13:34:29;;;;;;;10.65;9.63;;;17.10;34.80;;;;;;5017134;28;20196;-68
2021/12/23 13:36:57;;;;;;;10.00;9.00;;;17.10;34.90;;;;;;5034913;28;20208;-68
2021/12/23 13:39:25;;;;;;;9.60;8.70;;;17.10;35.40;;;;;;5033606;28;20656;-66